Alma, Colorado
Current Conditions -  °F | °C
As of 6:15 PM on Thursday 18 Dec 2014 (Local Time) from KCCU Reporting Station
Light Snow Light Snow  
Wind Chill:   Ceiling: 1100
Heat Index: 16°   Visibility: 2.5mi
Dew Point: 10°   Wind: 17mph
Humidity: 79%   Direction: 280°W
Pressure: 30.06"   Gusts: NA
Location:  39.28°N, 106.06°W
Report Text: KCCU 190115Z AUTO 28015KT 2 1/2SM -SN SCT001 BKN011 OVC024 M09/M12 A3006 RMK AO2
Loading
Personal Weather Stations






























Interactive Weather Map New forecast layout! Learn more

10-Day Weather Forecast

Advertisements
Track Severe Weather on mobile